sensor_id;sensor_type;location;lat;lon;timestamp;pressure;altitude;pressure_sealevel;temperature;humidity
34297;BME280;20564;42.902;25.336;2023-03-16T00:00:07;96200.78;;;8.45;62.07
34297;BME280;20564;42.902;25.336;2023-03-16T00:02:45;96195.53;;;8.45;61.99
34297;BME280;20564;42.902;25.336;2023-03-16T00:05:17;96199.97;;;8.45;62.86
34297;BME280;20564;42.902;25.336;2023-03-16T00:07:47;96202.13;;;8.50;62.95
34297;BME280;20564;42.902;25.336;2023-03-16T00:10:45;96200.84;;;8.54;63.01
34297;BME280;20564;42.902;25.336;2023-03-16T00:13:50;96201.59;;;8.46;63.35
34297;BME280;20564;42.902;25.336;2023-03-16T00:16:22;96189.47;;;8.45;63.37
34297;BME280;20564;42.902;25.336;2023-03-16T00:19:09;96194.19;;;8.41;63.71
34297;BME280;20564;42.902;25.336;2023-03-16T00:22:10;96202.72;;;8.43;63.31
34297;BME280;20564;42.902;25.336;2023-03-16T00:24:56;96199.13;;;8.44;63.86
34297;BME280;20564;42.902;25.336;2023-03-16T00:27:32;96206.03;;;8.45;63.44
34297;BME280;20564;42.902;25.336;2023-03-16T00:30:14;96209.00;;;8.51;63.66
34297;BME280;20564;42.902;25.336;2023-03-16T00:33:09;96199.84;;;8.55;64.01
34297;BME280;20564;42.902;25.336;2023-03-16T00:39:05;96216.88;;;8.51;64.18
34297;BME280;20564;42.902;25.336;2023-03-16T00:41:48;96205.72;;;8.49;63.94
34297;BME280;20564;42.902;25.336;2023-03-16T00:44:38;96217.94;;;8.40;63.93
34297;BME280;20564;42.902;25.336;2023-03-16T00:47:26;96223.34;;;8.38;64.56
34297;BME280;20564;42.902;25.336;2023-03-16T00:50:19;96220.72;;;8.38;64.92
34297;BME280;20564;42.902;25.336;2023-03-16T00:53:04;96225.66;;;8.41;64.63
34297;BME280;20564;42.902;25.336;2023-03-16T00:55:36;96226.19;;;8.45;64.08
34297;BME280;20564;42.902;25.336;2023-03-16T00:58:20;96232.53;;;8.42;64.62
34297;BME280;20564;42.902;25.336;2023-03-16T01:00:58;96233.88;;;8.47;64.28
34297;BME280;20564;42.902;25.336;2023-03-16T01:03:57;96238.53;;;8.53;64.25
34297;BME280;20564;42.902;25.336;2023-03-16T01:06:48;96232.38;;;8.44;63.75
34297;BME280;20564;42.902;25.336;2023-03-16T01:09:17;96235.81;;;8.44;64.23
34297;BME280;20564;42.902;25.336;2023-03-16T01:15:58;96233.94;;;8.37;64.87
34297;BME280;20564;42.902;25.336;2023-03-16T01:19:03;96231.75;;;8.32;64.80
34297;BME280;20564;42.902;25.336;2023-03-16T01:21:43;96240.53;;;8.23;65.37
34297;BME280;20564;42.902;25.336;2023-03-16T01:24:51;96255.50;;;8.13;66.57
34297;BME280;20564;42.902;25.336;2023-03-16T01:27:20;96245.75;;;8.05;66.52
34297;BME280;20564;42.902;25.336;2023-03-16T01:29:53;96248.50;;;8.04;67.55
34297;BME280;20564;42.902;25.336;2023-03-16T01:32:26;96255.56;;;8.03;67.50
34297;BME280;20564;42.902;25.336;2023-03-16T01:35:09;96252.41;;;8.00;68.17
34297;BME280;20564;42.902;25.336;2023-03-16T01:37:48;96259.88;;;7.94;68.08
34297;BME280;20564;42.902;25.336;2023-03-16T01:40:32;96262.88;;;8.00;68.08
34297;BME280;20564;42.902;25.336;2023-03-16T01:43:03;96261.25;;;7.98;68.09
34297;BME280;20564;42.902;25.336;2023-03-16T01:49:14;96260.13;;;7.73;69.85
34297;BME280;20564;42.902;25.336;2023-03-16T01:52:12;96263.56;;;7.74;70.02
34297;BME280;20564;42.902;25.336;2023-03-16T01:55:14;96275.31;;;7.70;71.04
34297;BME280;20564;42.902;25.336;2023-03-16T01:58:11;96277.94;;;7.70;71.88
34297;BME280;20564;42.902;25.336;2023-03-16T02:00:46;96283.84;;;7.72;72.04
34297;BME280;20564;42.902;25.336;2023-03-16T02:03:36;96286.84;;;7.77;72.53
34297;BME280;20564;42.902;25.336;2023-03-16T02:06:39;96277.63;;;7.73;72.99
34297;BME280;20564;42.902;25.336;2023-03-16T02:12:14;96277.13;;;7.60;74.40
34297;BME280;20564;42.902;25.336;2023-03-16T02:15:13;96282.13;;;7.53;75.46
34297;BME280;20564;42.902;25.336;2023-03-16T02:18:00;96277.03;;;7.52;75.36
34297;BME280;20564;42.902;25.336;2023-03-16T02:21:15;96286.53;;;7.53;76.34
34297;BME280;20564;42.902;25.336;2023-03-16T02:23:24;96291.78;;;7.53;76.20
34297;BME280;20564;42.902;25.336;2023-03-16T02:31:52;96293.75;;;7.41;78.06
34297;BME280;20564;42.902;25.336;2023-03-16T02:34:21;96304.47;;;7.47;78.04
34297;BME280;20564;42.902;25.336;2023-03-16T02:36:51;96298.69;;;7.54;77.26
34297;BME280;20564;42.902;25.336;2023-03-16T02:39:19;96307.19;;;7.56;77.94
34297;BME280;20564;42.902;25.336;2023-03-16T02:41:46;96310.78;;;7.55;77.79
34297;BME280;20564;42.902;25.336;2023-03-16T02:44:21;96315.47;;;7.61;78.17
34297;BME280;20564;42.902;25.336;2023-03-16T02:46:55;96320.19;;;7.47;78.69
34297;BME280;20564;42.902;25.336;2023-03-16T02:49:31;96321.72;;;7.40;79.47
34297;BME280;20564;42.902;25.336;2023-03-16T02:52:01;96331.38;;;7.40;78.81
34297;BME280;20564;42.902;25.336;2023-03-16T02:54:29;96328.88;;;7.38;79.02
34297;BME280;20564;42.902;25.336;2023-03-16T02:56:56;96347.50;;;7.35;78.56
34297;BME280;20564;42.902;25.336;2023-03-16T02:59:24;96346.66;;;7.35;78.54
34297;BME280;20564;42.902;25.336;2023-03-16T03:01:52;96351.06;;;7.34;79.36
34297;BME280;20564;42.902;25.336;2023-03-16T03:04:21;96356.88;;;7.28;79.78
34297;BME280;20564;42.902;25.336;2023-03-16T03:06:50;96354.00;;;7.21;79.86
34297;BME280;20564;42.902;25.336;2023-03-16T03:09:18;96338.28;;;7.21;78.40
34297;BME280;20564;42.902;25.336;2023-03-16T03:11:47;96348.88;;;7.20;79.33
34297;BME280;20564;42.902;25.336;2023-03-16T03:14:15;96355.53;;;7.14;79.69
34297;BME280;20564;42.902;25.336;2023-03-16T03:16:43;96352.75;;;7.16;80.04
34297;BME280;20564;42.902;25.336;2023-03-16T03:19:13;96362.66;;;7.12;79.48
34297;BME280;20564;42.902;25.336;2023-03-16T03:21:42;96356.88;;;7.09;78.96
34297;BME280;20564;42.902;25.336;2023-03-16T03:24:13;96367.34;;;7.09;78.84
34297;BME280;20564;42.902;25.336;2023-03-16T03:26:53;96361.88;;;7.02;79.58
34297;BME280;20564;42.902;25.336;2023-03-16T03:29:24;96367.94;;;7.03;79.68
34297;BME280;20564;42.902;25.336;2023-03-16T03:32:10;96364.06;;;6.78;79.56
34297;BME280;20564;42.902;25.336;2023-03-16T03:34:57;96373.00;;;6.75;79.92
34297;BME280;20564;42.902;25.336;2023-03-16T03:37:38;96379.50;;;6.81;79.57
34297;BME280;20564;42.902;25.336;2023-03-16T03:40:42;96375.22;;;6.70;80.17
34297;BME280;20564;42.902;25.336;2023-03-16T03:43:10;96380.56;;;6.59;80.58
34297;BME280;20564;42.902;25.336;2023-03-16T03:45:39;96384.81;;;6.60;80.02
34297;BME280;20564;42.902;25.336;2023-03-16T03:48:09;96391.16;;;6.57;79.69
34297;BME280;20564;42.902;25.336;2023-03-16T03:50:37;96382.78;;;6.63;79.69
34297;BME280;20564;42.902;25.336;2023-03-16T03:53:07;96399.28;;;6.64;79.42
34297;BME280;20564;42.902;25.336;2023-03-16T03:55:39;96393.47;;;6.41;80.23
34297;BME280;20564;42.902;25.336;2023-03-16T03:58:06;96406.38;;;6.42;80.51
34297;BME280;20564;42.902;25.336;2023-03-16T04:00:34;96407.34;;;6.41;80.93
34297;BME280;20564;42.902;25.336;2023-03-16T04:03:01;96415.47;;;6.38;80.10
34297;BME280;20564;42.902;25.336;2023-03-16T04:05:30;96415.31;;;6.30;80.62
34297;BME280;20564;42.902;25.336;2023-03-16T04:07:58;96425.63;;;6.32;81.61
34297;BME280;20564;42.902;25.336;2023-03-16T04:10:39;96421.75;;;6.26;81.23
34297;BME280;20564;42.902;25.336;2023-03-16T04:13:07;96416.28;;;6.29;81.29
34297;BME280;20564;42.902;25.336;2023-03-16T04:15:35;96416.84;;;6.33;80.94
34297;BME280;20564;42.902;25.336;2023-03-16T04:18:05;96424.78;;;6.31;80.38
34297;BME280;20564;42.902;25.336;2023-03-16T04:20:33;96425.31;;;6.25;81.77
34297;BME280;20564;42.902;25.336;2023-03-16T04:23:02;96428.59;;;6.17;82.31
34297;BME280;20564;42.902;25.336;2023-03-16T04:25:30;96428.31;;;6.11;83.59
34297;BME280;20564;42.902;25.336;2023-03-16T04:28:01;96431.84;;;6.10;83.03
34297;BME280;20564;42.902;25.336;2023-03-16T04:30:31;96432.41;;;6.13;84.66
34297;BME280;20564;42.902;25.336;2023-03-16T04:32:59;96438.22;;;6.17;84.06
34297;BME280;20564;42.902;25.336;2023-03-16T04:35:29;96442.91;;;6.23;84.63
34297;BME280;20564;42.902;25.336;2023-03-16T04:37:57;96433.28;;;6.23;84.03
34297;BME280;20564;42.902;25.336;2023-03-16T04:40:25;96451.97;;;6.19;84.77
34297;BME280;20564;42.902;25.336;2023-03-16T04:42:53;96444.16;;;6.19;84.55
34297;BME280;20564;42.902;25.336;2023-03-16T04:45:21;96446.50;;;6.22;84.54
34297;BME280;20564;42.902;25.336;2023-03-16T04:47:52;96454.19;;;6.23;84.71
34297;BME280;20564;42.902;25.336;2023-03-16T04:50:19;96456.41;;;6.28;84.80
34297;BME280;20564;42.902;25.336;2023-03-16T04:52:47;96451.97;;;6.19;84.36
34297;BME280;20564;42.902;25.336;2023-03-16T04:55:15;96450.31;;;6.18;84.25
34297;BME280;20564;42.902;25.336;2023-03-16T04:57:42;96452.34;;;6.04;85.16
34297;BME280;20564;42.902;25.336;2023-03-16T05:00:10;96453.25;;;5.94;86.28
34297;BME280;20564;42.902;25.336;2023-03-16T05:02:41;96448.75;;;5.85;85.65
34297;BME280;20564;42.902;25.336;2023-03-16T05:05:08;96456.31;;;5.88;86.23
34297;BME280;20564;42.902;25.336;2023-03-16T05:07:35;96458.13;;;5.87;86.89
34297;BME280;20564;42.902;25.336;2023-03-16T05:10:03;96466.41;;;5.92;86.40
34297;BME280;20564;42.902;25.336;2023-03-16T05:12:30;96470.59;;;5.84;86.74
34297;BME280;20564;42.902;25.336;2023-03-16T05:15:01;96468.13;;;5.82;87.30
34297;BME280;20564;42.902;25.336;2023-03-16T05:17:28;96473.72;;;5.77;85.79
34297;BME280;20564;42.902;25.336;2023-03-16T05:19:55;96484.81;;;5.70;86.22
34297;BME280;20564;42.902;25.336;2023-03-16T05:22:22;96480.03;;;5.75;85.79
34297;BME280;20564;42.902;25.336;2023-03-16T05:24:49;96487.16;;;5.73;86.15
34297;BME280;20564;42.902;25.336;2023-03-16T05:30:25;96506.50;;;5.70;86.16
34297;BME280;20564;42.902;25.336;2023-03-16T05:33:14;96509.81;;;5.51;84.59
34297;BME280;20564;42.902;25.336;2023-03-16T05:35:52;96516.13;;;5.49;85.78
34297;BME280;20564;42.902;25.336;2023-03-16T05:38:24;96531.69;;;5.39;85.29
34297;BME280;20564;42.902;25.336;2023-03-16T05:40:54;96535.50;;;5.35;86.47
34297;BME280;20564;42.902;25.336;2023-03-16T05:43:31;96533.69;;;5.47;86.19
34297;BME280;20564;42.902;25.336;2023-03-16T05:45:59;96541.81;;;5.32;86.09
34297;BME280;20564;42.902;25.336;2023-03-16T05:48:27;96548.66;;;5.33;87.02
34297;BME280;20564;42.902;25.336;2023-03-16T05:50:54;96549.72;;;5.42;86.57
34297;BME280;20564;42.902;25.336;2023-03-16T05:53:23;96556.72;;;5.42;85.02
34297;BME280;20564;42.902;25.336;2023-03-16T05:55:59;96562.53;;;5.45;86.54
34297;BME280;20564;42.902;25.336;2023-03-16T05:58:30;96564.19;;;5.46;86.47
34297;BME280;20564;42.902;25.336;2023-03-16T06:01:01;96564.19;;;5.46;84.91
34297;BME280;20564;42.902;25.336;2023-03-16T06:03:29;96567.16;;;5.42;85.13
34297;BME280;20564;42.902;25.336;2023-03-16T06:05:57;96568.81;;;5.43;85.28
34297;BME280;20564;42.902;25.336;2023-03-16T06:08:25;96565.53;;;5.29;85.86
34297;BME280;20564;42.902;25.336;2023-03-16T06:10:52;96581.06;;;5.31;85.40
34297;BME280;20564;42.902;25.336;2023-03-16T06:13:20;96581.19;;;5.29;85.74
34297;BME280;20564;42.902;25.336;2023-03-16T06:15:55;96582.53;;;5.13;84.77
34297;BME280;20564;42.902;25.336;2023-03-16T06:18:24;96583.47;;;5.00;86.47
34297;BME280;20564;42.902;25.336;2023-03-16T06:20:53;96582.31;;;4.93;85.57
34297;BME280;20564;42.902;25.336;2023-03-16T06:23:21;96588.97;;;4.97;86.75
34297;BME280;20564;42.902;25.336;2023-03-16T06:25:49;96594.06;;;4.88;86.38
34297;BME280;20564;42.902;25.336;2023-03-16T06:28:17;96592.28;;;4.88;86.96
34297;BME280;20564;42.902;25.336;2023-03-16T06:30:45;96611.59;;;4.97;87.37
34297;BME280;20564;42.902;25.336;2023-03-16T06:33:13;96609.84;;;4.97;85.94
34297;BME280;20564;42.902;25.336;2023-03-16T06:35:40;96613.97;;;5.00;86.87
34297;BME280;20564;42.902;25.336;2023-03-16T06:38:09;96622.88;;;5.08;84.82
34297;BME280;20564;42.902;25.336;2023-03-16T06:40:41;96629.00;;;4.96;83.88
34297;BME280;20564;42.902;25.336;2023-03-16T06:43:09;96638.41;;;4.88;86.25
34297;BME280;20564;42.902;25.336;2023-03-16T06:45:37;96635.28;;;4.82;85.56
34297;BME280;20564;42.902;25.336;2023-03-16T06:48:04;96643.09;;;4.60;87.34
34297;BME280;20564;42.902;25.336;2023-03-16T06:50:33;96637.66;;;4.63;87.03
34297;BME280;20564;42.902;25.336;2023-03-16T06:53:01;96645.84;;;4.58;88.33
34297;BME280;20564;42.902;25.336;2023-03-16T06:55:28;96644.66;;;4.63;87.34
34297;BME280;20564;42.902;25.336;2023-03-16T06:57:56;96646.06;;;4.55;88.85
34297;BME280;20564;42.902;25.336;2023-03-16T07:00:26;96653.63;;;4.47;88.71
34297;BME280;20564;42.902;25.336;2023-03-16T07:02:54;96653.03;;;4.44;88.82
34297;BME280;20564;42.902;25.336;2023-03-16T07:05:26;96661.44;;;4.36;89.47
34297;BME280;20564;42.902;25.336;2023-03-16T07:07:53;96669.94;;;4.38;89.57
34297;BME280;20564;42.902;25.336;2023-03-16T07:10:21;96661.44;;;4.36;88.80
34297;BME280;20564;42.902;25.336;2023-03-16T07:12:52;96674.56;;;4.34;89.75
34297;BME280;20564;42.902;25.336;2023-03-16T07:15:24;96666.06;;;4.44;89.08
34297;BME280;20564;42.902;25.336;2023-03-16T07:18:04;96678.00;;;4.35;90.03
34297;BME280;20564;42.902;25.336;2023-03-16T07:20:35;96682.88;;;4.40;89.64
34297;BME280;20564;42.902;25.336;2023-03-16T07:23:01;96684.41;;;4.42;89.84
34297;BME280;20564;42.902;25.336;2023-03-16T07:25:32;96685.13;;;4.44;89.50
34297;BME280;20564;42.902;25.336;2023-03-16T07:28:00;96690.81;;;4.49;88.17
34297;BME280;20564;42.902;25.336;2023-03-16T07:30:27;96689.91;;;4.50;88.78
34297;BME280;20564;42.902;25.336;2023-03-16T07:32:56;96686.34;;;4.51;87.59
34297;BME280;20564;42.902;25.336;2023-03-16T07:35:23;96695.56;;;4.44;88.99
34297;BME280;20564;42.902;25.336;2023-03-16T07:37:53;96686.78;;;4.45;89.39
34297;BME280;20564;42.902;25.336;2023-03-16T07:40:42;96696.03;;;4.49;89.28
34297;BME280;20564;42.902;25.336;2023-03-16T07:43:15;96694.63;;;4.56;88.95
34297;BME280;20564;42.902;25.336;2023-03-16T07:46:12;96700.44;;;4.60;88.12
34297;BME280;20564;42.902;25.336;2023-03-16T07:48:47;96704.25;;;4.67;87.05
34297;BME280;20564;42.902;25.336;2023-03-16T07:51:30;96706.97;;;4.54;87.71
34297;BME280;20564;42.902;25.336;2023-03-16T07:54:07;96719.50;;;4.60;88.94
34297;BME280;20564;42.902;25.336;2023-03-16T07:56:58;96721.44;;;4.70;87.94
34297;BME280;20564;42.902;25.336;2023-03-16T08:00:02;96720.63;;;4.69;88.32
34297;BME280;20564;42.902;25.336;2023-03-16T08:03:12;96721.22;;;4.73;88.27
34297;BME280;20564;42.902;25.336;2023-03-16T08:05:44;96724.28;;;4.78;86.48
34297;BME280;20564;42.902;25.336;2023-03-16T08:08:22;96725.59;;;4.72;86.99
34297;BME280;20564;42.902;25.336;2023-03-16T08:11:12;96728.41;;;4.58;88.48
34297;BME280;20564;42.902;25.336;2023-03-16T08:13:41;96733.88;;;4.66;87.50
34297;BME280;20564;42.902;25.336;2023-03-16T08:16:10;96738.00;;;4.57;87.97
34297;BME280;20564;42.902;25.336;2023-03-16T08:18:39;96737.72;;;4.49;87.81
34297;BME280;20564;42.902;25.336;2023-03-16T08:21:18;96733.91;;;4.42;87.79
34297;BME280;20564;42.902;25.336;2023-03-16T08:23:50;96737.25;;;4.44;88.52
34297;BME280;20564;42.902;25.336;2023-03-16T08:26:31;96746.16;;;4.53;87.00
34297;BME280;20564;42.902;25.336;2023-03-16T08:29:02;96744.13;;;4.45;86.93
34297;BME280;20564;42.902;25.336;2023-03-16T08:31:40;96744.72;;;4.49;87.34
34297;BME280;20564;42.902;25.336;2023-03-16T08:34:10;96737.03;;;4.47;86.51
34297;BME280;20564;42.902;25.336;2023-03-16T08:36:43;96747.91;;;4.41;86.09
34297;BME280;20564;42.902;25.336;2023-03-16T08:39:11;96751.53;;;4.39;87.19
34297;BME280;20564;42.902;25.336;2023-03-16T08:41:40;96755.44;;;4.33;86.22
34297;BME280;20564;42.902;25.336;2023-03-16T08:44:11;96754.72;;;4.31;87.97
34297;BME280;20564;42.902;25.336;2023-03-16T08:46:38;96756.22;;;4.46;88.29
34297;BME280;20564;42.902;25.336;2023-03-16T08:49:06;96757.44;;;4.53;86.88
34297;BME280;20564;42.902;25.336;2023-03-16T08:51:34;96773.38;;;4.49;86.26
34297;BME280;20564;42.902;25.336;2023-03-16T08:54:02;96769.53;;;4.30;88.46
34297;BME280;20564;42.902;25.336;2023-03-16T08:56:29;96774.84;;;4.29;88.33
34297;BME280;20564;42.902;25.336;2023-03-16T08:58:57;96766.31;;;4.27;90.44
34297;BME280;20564;42.902;25.336;2023-03-16T09:01:25;96772.03;;;4.32;89.41
34297;BME280;20564;42.902;25.336;2023-03-16T09:03:54;96775.84;;;4.39;90.13
34297;BME280;20564;42.902;25.336;2023-03-16T09:06:22;96780.22;;;4.39;89.21
34297;BME280;20564;42.902;25.336;2023-03-16T09:08:52;96779.06;;;4.43;89.13
34297;BME280;20564;42.902;25.336;2023-03-16T09:11:19;96782.09;;;4.37;89.29
34297;BME280;20564;42.902;25.336;2023-03-16T09:13:50;96783.66;;;4.39;91.02
34297;BME280;20564;42.902;25.336;2023-03-16T09:16:18;96787.94;;;4.40;90.42
34297;BME280;20564;42.902;25.336;2023-03-16T09:18:47;96788.72;;;4.53;91.07
34297;BME280;20564;42.902;25.336;2023-03-16T09:21:19;96788.00;;;4.63;90.17
34297;BME280;20564;42.902;25.336;2023-03-16T09:23:57;96797.66;;;4.49;88.91
34297;BME280;20564;42.902;25.336;2023-03-16T09:26:24;96802.28;;;4.46;89.21
34297;BME280;20564;42.902;25.336;2023-03-16T09:28:53;96804.56;;;4.50;91.26
34297;BME280;20564;42.902;25.336;2023-03-16T09:31:21;96810.75;;;4.60;89.77
34297;BME280;20564;42.902;25.336;2023-03-16T09:33:53;96804.91;;;4.57;88.69
34297;BME280;20564;42.902;25.336;2023-03-16T09:36:21;96809.09;;;4.59;90.62
34297;BME280;20564;42.902;25.336;2023-03-16T09:38:48;96812.81;;;4.68;91.09
34297;BME280;20564;42.902;25.336;2023-03-16T09:46:57;96826.44;;;4.72;89.21
34297;BME280;20564;42.902;25.336;2023-03-16T09:49:32;96825.72;;;4.70;89.50
34297;BME280;20564;42.902;25.336;2023-03-16T09:55:23;96839.41;;;4.60;88.66
34297;BME280;20564;42.902;25.336;2023-03-16T09:57:54;96841.88;;;4.51;90.88
34297;BME280;20564;42.902;25.336;2023-03-16T10:00:33;96840.22;;;4.50;90.26
34297;BME280;20564;42.902;25.336;2023-03-16T10:06:04;96847.94;;;4.39;90.36
34297;BME280;20564;42.902;25.336;2023-03-16T10:13:55;96853.13;;;4.51;88.66
34297;BME280;20564;42.902;25.336;2023-03-16T10:16:42;96845.78;;;4.56;88.21
34297;BME280;20564;42.902;25.336;2023-03-16T10:19:32;96852.38;;;4.49;87.27
34297;BME280;20564;42.902;25.336;2023-03-16T10:22:08;96853.47;;;4.47;87.28
34297;BME280;20564;42.902;25.336;2023-03-16T10:24:49;96853.56;;;4.45;86.18
34297;BME280;20564;42.902;25.336;2023-03-16T10:27:32;96851.34;;;4.52;86.80
34297;BME280;20564;42.902;25.336;2023-03-16T10:30:02;96857.44;;;4.64;85.80
34297;BME280;20564;42.902;25.336;2023-03-16T10:32:30;96851.56;;;4.73;84.70
34297;BME280;20564;42.902;25.336;2023-03-16T10:37:54;96856.31;;;4.79;83.58
34297;BME280;20564;42.902;25.336;2023-03-16T10:40:30;96853.25;;;4.85;83.15
34297;BME280;20564;42.902;25.336;2023-03-16T10:43:21;96853.03;;;4.88;83.27
34297;BME280;20564;42.902;25.336;2023-03-16T10:45:49;96853.53;;;4.93;82.44
34297;BME280;20564;42.902;25.336;2023-03-16T10:48:19;96852.09;;;4.89;82.91
34297;BME280;20564;42.902;25.336;2023-03-16T10:50:53;96848.00;;;4.74;82.21
34297;BME280;20564;42.902;25.336;2023-03-16T10:53:29;96852.88;;;4.78;83.01
34297;BME280;20564;42.902;25.336;2023-03-16T10:55:59;96864.44;;;4.87;82.85
34297;BME280;20564;42.902;25.336;2023-03-16T10:58:31;96853.44;;;4.71;83.55
34297;BME280;20564;42.902;25.336;2023-03-16T11:01:00;96858.72;;;4.58;83.09
34297;BME280;20564;42.902;25.336;2023-03-16T11:03:29;96858.38;;;4.63;82.38
34297;BME280;20564;42.902;25.336;2023-03-16T11:06:04;96853.81;;;4.77;83.23
34297;BME280;20564;42.902;25.336;2023-03-16T11:08:36;96865.84;;;4.91;83.26
34297;BME280;20564;42.902;25.336;2023-03-16T11:11:30;96853.78;;;4.90;82.84
34297;BME280;20564;42.902;25.336;2023-03-16T11:14:08;96863.00;;;4.83;81.86
34297;BME280;20564;42.902;25.336;2023-03-16T11:17:32;96863.66;;;4.74;82.56
34297;BME280;20564;42.902;25.336;2023-03-16T11:19:37;96861.53;;;4.79;83.45
34297;BME280;20564;42.902;25.336;2023-03-16T11:30:29;96861.78;;;4.76;81.75
34297;BME280;20564;42.902;25.336;2023-03-16T11:33:05;96864.69;;;4.71;81.73
34297;BME280;20564;42.902;25.336;2023-03-16T11:53:51;96871.84;;;4.56;85.18
34297;BME280;20564;42.902;25.336;2023-03-16T11:56:34;96874.75;;;4.65;85.18
34297;BME280;20564;42.902;25.336;2023-03-16T12:08:18;96880.13;;;4.50;85.92
34297;BME280;20564;42.902;25.336;2023-03-16T12:11:06;96883.50;;;4.64;86.44
34297;BME280;20564;42.902;25.336;2023-03-16T12:16:30;96886.63;;;4.69;86.95
34297;BME280;20564;42.902;25.336;2023-03-16T12:22:41;96883.38;;;4.41;86.51
34297;BME280;20564;42.902;25.336;2023-03-16T12:25:25;96890.88;;;4.46;88.31
34297;BME280;20564;42.902;25.336;2023-03-16T12:28:03;96903.97;;;4.57;88.20
34297;BME280;20564;42.902;25.336;2023-03-16T12:42:39;96906.81;;;4.78;87.79
34297;BME280;20564;42.902;25.336;2023-03-16T12:48:12;96912.75;;;4.80;85.90
34297;BME280;20564;42.902;25.336;2023-03-16T12:50:52;96915.41;;;4.67;87.58
34297;BME280;20564;42.902;25.336;2023-03-16T12:56:37;96914.97;;;4.73;86.28
34297;BME280;20564;42.902;25.336;2023-03-16T12:59:21;96924.56;;;4.73;87.12
34297;BME280;20564;42.902;25.336;2023-03-16T13:01:57;96924.16;;;4.66;85.86
34297;BME280;20564;42.902;25.336;2023-03-16T13:04:31;96922.31;;;4.55;86.07
34297;BME280;20564;42.902;25.336;2023-03-16T13:07:48;96928.91;;;4.48;85.31
34297;BME280;20564;42.902;25.336;2023-03-16T13:10:12;96935.63;;;4.40;86.46
34297;BME280;20564;42.902;25.336;2023-03-16T13:12:53;96935.28;;;4.44;87.86
34297;BME280;20564;42.902;25.336;2023-03-16T13:15:36;96937.19;;;4.29;87.39
34297;BME280;20564;42.902;25.336;2023-03-16T13:20:57;96939.47;;;4.34;86.48
34297;BME280;20564;42.902;25.336;2023-03-16T13:23:28;96943.03;;;4.33;86.42
34297;BME280;20564;42.902;25.336;2023-03-16T13:26:43;96948.03;;;4.36;86.27
34297;BME280;20564;42.902;25.336;2023-03-16T13:29:22;96950.94;;;4.44;86.81
34297;BME280;20564;42.902;25.336;2023-03-16T13:31:57;96954.47;;;4.43;86.05
34297;BME280;20564;42.902;25.336;2023-03-16T13:34:39;96955.72;;;4.50;85.92
34297;BME280;20564;42.902;25.336;2023-03-16T13:37:15;96956.41;;;4.52;85.93
34297;BME280;20564;42.902;25.336;2023-03-16T13:39:52;96954.44;;;4.56;84.43
34297;BME280;20564;42.902;25.336;2023-03-16T13:42:25;96961.00;;;4.62;86.05
34297;BME280;20564;42.902;25.336;2023-03-16T13:44:55;96956.50;;;4.64;84.74
34297;BME280;20564;42.902;25.336;2023-03-16T13:47:26;96958.88;;;4.67;85.63
34297;BME280;20564;42.902;25.336;2023-03-16T13:49:56;96964.38;;;4.75;84.44
34297;BME280;20564;42.902;25.336;2023-03-16T13:52:27;96960.38;;;4.82;84.63
34297;BME280;20564;42.902;25.336;2023-03-16T13:54:57;96966.94;;;4.88;84.76
34297;BME280;20564;42.902;25.336;2023-03-16T13:57:34;96969.75;;;4.97;84.70
34297;BME280;20564;42.902;25.336;2023-03-16T14:00:15;96969.34;;;4.91;84.69
34297;BME280;20564;42.902;25.336;2023-03-16T14:02:45;96966.81;;;4.89;84.96
34297;BME280;20564;42.902;25.336;2023-03-16T14:05:19;96970.66;;;4.96;84.50
34297;BME280;20564;42.902;25.336;2023-03-16T14:07:48;96980.31;;;5.07;84.57
34297;BME280;20564;42.902;25.336;2023-03-16T14:10:17;96981.88;;;5.10;83.38
34297;BME280;20564;42.902;25.336;2023-03-16T14:15:19;96983.38;;;4.77;83.72
34297;BME280;20564;42.902;25.336;2023-03-16T14:17:47;96987.41;;;4.81;85.07
34297;BME280;20564;42.902;25.336;2023-03-16T14:20:22;96996.63;;;4.74;86.65
34297;BME280;20564;42.902;25.336;2023-03-16T14:22:52;96992.34;;;4.73;86.37
34297;BME280;20564;42.902;25.336;2023-03-16T14:25:26;96999.84;;;4.77;85.54
34297;BME280;20564;42.902;25.336;2023-03-16T14:28:00;96992.84;;;4.78;87.21
34297;BME280;20564;42.902;25.336;2023-03-16T14:30:29;96997.56;;;4.73;86.00
34297;BME280;20564;42.902;25.336;2023-03-16T14:33:04;97008.19;;;4.70;86.52
34297;BME280;20564;42.902;25.336;2023-03-16T14:35:40;97000.72;;;4.52;88.34
34297;BME280;20564;42.902;25.336;2023-03-16T14:41:02;97001.47;;;4.42;88.74
34297;BME280;20564;42.902;25.336;2023-03-16T14:43:36;97013.88;;;4.38;88.51
34297;BME280;20564;42.902;25.336;2023-03-16T14:46:06;97007.00;;;4.37;89.73
34297;BME280;20564;42.902;25.336;2023-03-16T14:48:34;97018.69;;;4.44;89.35
34297;BME280;20564;42.902;25.336;2023-03-16T14:51:03;97025.13;;;4.51;90.37
34297;BME280;20564;42.902;25.336;2023-03-16T14:53:30;97020.84;;;4.63;89.51
34297;BME280;20564;42.902;25.336;2023-03-16T14:55:58;97026.59;;;4.55;87.72
34297;BME280;20564;42.902;25.336;2023-03-16T14:58:26;97033.97;;;4.62;88.38
34297;BME280;20564;42.902;25.336;2023-03-16T15:00:53;97036.38;;;4.65;89.33
34297;BME280;20564;42.902;25.336;2023-03-16T15:03:22;97040.66;;;4.66;89.53
34297;BME280;20564;42.902;25.336;2023-03-16T15:05:56;97045.31;;;4.60;89.13
34297;BME280;20564;42.902;25.336;2023-03-16T15:08:25;97051.50;;;4.59;89.54
34297;BME280;20564;42.902;25.336;2023-03-16T15:10:58;97047.44;;;4.55;90.20
34297;BME280;20564;42.902;25.336;2023-03-16T15:13:35;97049.34;;;4.53;90.11
34297;BME280;20564;42.902;25.336;2023-03-16T15:16:09;97052.44;;;4.58;90.86
34297;BME280;20564;42.902;25.336;2023-03-16T15:18:38;97055.56;;;4.38;91.00
34297;BME280;20564;42.902;25.336;2023-03-16T15:21:20;97057.25;;;4.39;92.57
34297;BME280;20564;42.902;25.336;2023-03-16T15:23:50;97056.72;;;4.34;91.49
34297;BME280;20564;42.902;25.336;2023-03-16T15:26:22;97061.63;;;4.26;92.68
34297;BME280;20564;42.902;25.336;2023-03-16T15:28:56;97070.59;;;4.22;93.25